createdAt,value
2022-08-08T00:01:09.196Z,68.10
2022-08-08T00:03:48.283Z,68.30
2022-08-08T00:06:35.477Z,68.70
2022-08-08T00:09:15.959Z,68.70
2022-08-08T00:12:09.596Z,69.20
2022-08-08T00:14:59.892Z,69.10
2022-08-08T00:17:58.626Z,68.80
2022-08-08T00:20:42.498Z,68.70
2022-08-08T00:23:18.029Z,68.50
2022-08-08T00:25:53.349Z,68.40
2022-08-08T00:28:35.955Z,68.20
2022-08-08T00:32:15.348Z,68.00
2022-08-08T00:34:39.605Z,68.10
2022-08-08T00:37:47.238Z,68.20
2022-08-08T00:41:11.466Z,68.00
2022-08-08T00:44:09.359Z,68.10
2022-08-08T00:47:19.326Z,68.30
2022-08-08T00:50:23.449Z,68.30
2022-08-08T00:53:00.796Z,68.30
2022-08-08T00:56:16.455Z,68.40
2022-08-08T00:59:44.216Z,68.30
2022-08-08T01:03:59.344Z,68.30
2022-08-08T01:06:12.552Z,68.40
2022-08-08T01:09:35.473Z,68.50
2022-08-08T01:12:54.763Z,68.30
2022-08-08T01:15:56.802Z,68.20
2022-08-08T01:19:02.666Z,68.20
2022-08-08T01:22:23.412Z,68.30
2022-08-08T01:25:40.050Z,68.30
2022-08-08T01:28:28.122Z,68.10
2022-08-08T01:32:13.135Z,68.20
2022-08-08T01:35:11.400Z,68.30
2022-08-08T01:38:45.013Z,68.40
2022-08-08T01:41:25.542Z,68.20
2022-08-08T01:44:07.306Z,68.30
2022-08-08T01:46:52.322Z,68.40
2022-08-08T01:49:45.718Z,68.50
2022-08-08T01:53:01.966Z,68.60
2022-08-08T01:56:29.927Z,68.40
2022-08-08T01:58:39.730Z,68.40
2022-08-08T02:01:36.052Z,68.40
2022-08-08T02:04:28.308Z,68.60
2022-08-08T02:07:04.817Z,68.60
2022-08-08T02:10:03.424Z,68.50
2022-08-08T02:12:49.858Z,68.60
2022-08-08T02:15:34.693Z,68.70
2022-08-08T02:18:14.575Z,68.80
2022-08-08T02:21:08.799Z,68.70
2022-08-08T02:23:48.883Z,68.70
2022-08-08T02:26:32.268Z,68.90
2022-08-08T02:29:19.029Z,69.10
2022-08-08T02:32:15.768Z,70.20
2022-08-08T02:35:35.694Z,69.70
2022-08-08T02:38:44.797Z,69.80
2022-08-08T02:42:07.856Z,69.60
2022-08-08T02:45:18.622Z,69.60
2022-08-08T02:48:30.846Z,69.20
2022-08-08T02:51:46.345Z,69.30
2022-08-08T02:55:31.928Z,69.30
2022-08-08T02:58:54.952Z,69.30
2022-08-08T03:02:08.458Z,69.20
2022-08-08T03:05:20.803Z,69.10
2022-08-08T03:08:28.627Z,69.30
2022-08-08T03:12:01.313Z,69.50
2022-08-08T03:15:58.107Z,69.40
2022-08-08T03:18:04.528Z,69.70
2022-08-08T03:20:51.366Z,70.00
2022-08-08T03:23:39.894Z,70.90
2022-08-08T03:26:27.187Z,70.00
2022-08-08T03:29:16.814Z,69.90
2022-08-08T03:32:08.584Z,70.10
2022-08-08T03:34:41.475Z,70.40
2022-08-08T03:37:59.838Z,70.20
2022-08-08T03:40:29.723Z,70.20
2022-08-08T03:43:16.661Z,70.20
2022-08-08T03:46:05.639Z,70.30
2022-08-08T03:49:30.150Z,70.50
2022-08-08T03:51:50.954Z,70.60
2022-08-08T03:54:40.725Z,70.40
2022-08-08T03:58:09.716Z,70.20
2022-08-08T04:00:11.330Z,70.70
2022-08-08T04:02:58.314Z,71.10
2022-08-08T04:05:29.472Z,71.40
2022-08-08T04:08:06.940Z,71.20
2022-08-08T04:10:37.725Z,71.00
2022-08-08T04:13:17.874Z,71.20
2022-08-08T04:15:54.983Z,71.40
2022-08-08T04:18:44.769Z,71.80
2022-08-08T04:21:23.261Z,71.90
2022-08-08T04:24:11.777Z,71.70
2022-08-08T04:26:58.078Z,71.70
2022-08-08T04:29:36.707Z,71.80
2022-08-08T04:32:10.771Z,71.90
2022-08-08T04:34:42.769Z,71.80
2022-08-08T04:37:19.207Z,71.90
2022-08-08T04:40:06.393Z,72.00
2022-08-08T04:42:46.561Z,71.90
2022-08-08T04:45:31.567Z,72.20
2022-08-08T04:48:04.064Z,72.50
2022-08-08T04:50:38.912Z,73.30
2022-08-08T04:54:36.541Z,72.40
2022-08-08T04:56:09.092Z,72.30
2022-08-08T04:58:39.133Z,72.50
2022-08-08T05:01:11.505Z,72.30
2022-08-08T05:04:08.072Z,72.20
2022-08-08T05:06:43.715Z,72.10
2022-08-08T05:09:15.668Z,72.90
2022-08-08T05:11:47.629Z,71.90
2022-08-08T05:14:29.083Z,71.90
2022-08-08T05:17:10.633Z,71.70
2022-08-08T05:20:11.367Z,71.70
2022-08-08T05:22:36.222Z,71.70
2022-08-08T05:25:06.835Z,71.70
2022-08-08T05:27:41.651Z,71.70
2022-08-08T05:30:15.716Z,71.70
2022-08-08T05:32:49.416Z,71.80
2022-08-08T05:35:24.215Z,72.30
2022-08-08T05:38:01.849Z,72.10
2022-08-08T05:40:59.784Z,72.20
2022-08-08T05:43:39.238Z,72.00
2022-08-08T05:46:13.487Z,71.80
2022-08-08T05:48:52.221Z,71.90
2022-08-08T05:51:24.701Z,72.10
2022-08-08T05:54:27.593Z,72.10
2022-08-08T05:56:48.508Z,72.20
2022-08-08T06:00:00.866Z,72.50
2022-08-08T06:02:48.099Z,72.60
2022-08-08T06:05:34.323Z,72.80
2022-08-08T06:08:28.701Z,72.80
2022-08-08T06:11:05.544Z,72.90
2022-08-08T06:13:47.251Z,73.10
2022-08-08T06:16:27.254Z,73.30
2022-08-08T06:19:28.746Z,73.60
2022-08-08T06:22:32.125Z,73.80
2022-08-08T06:24:58.200Z,73.60
2022-08-08T06:27:38.820Z,73.50
2022-08-08T06:30:11.784Z,73.80
2022-08-08T06:32:53.226Z,74.00
2022-08-08T06:36:08.138Z,73.90
2022-08-08T06:38:27.698Z,73.80
2022-08-08T06:41:07.466Z,73.40
2022-08-08T06:43:38.591Z,73.00
2022-08-08T06:46:16.620Z,72.30
2022-08-08T06:48:49.863Z,72.00
2022-08-08T06:51:22.459Z,71.80
2022-08-08T06:53:56.186Z,71.70
2022-08-08T06:56:34.565Z,71.60
2022-08-08T06:59:09.712Z,71.50
2022-08-08T07:02:27.613Z,71.40
2022-08-08T07:04:48.013Z,71.20
2022-08-08T07:07:32.829Z,71.20
2022-08-08T07:10:09.954Z,71.30
2022-08-08T07:12:47.777Z,71.10
2022-08-08T07:16:05.140Z,71.00
2022-08-08T07:18:41.137Z,71.20
2022-08-08T07:21:20.359Z,71.10
2022-08-08T07:24:03.504Z,71.00
2022-08-08T07:26:46.866Z,71.10
2022-08-08T07:30:02.179Z,71.10
2022-08-08T07:32:17.204Z,71.40
2022-08-08T07:35:00.833Z,71.40
2022-08-08T07:37:56.416Z,71.30
2022-08-08T07:40:40.027Z,71.40
2022-08-08T07:43:14.896Z,71.30
2022-08-08T07:46:05.901Z,71.50
2022-08-08T07:48:42.103Z,71.80
2022-08-08T07:51:23.189Z,72.00
2022-08-08T07:54:08.466Z,72.00
2022-08-08T07:56:50.437Z,71.80
2022-08-08T07:59:26.564Z,71.70
2022-08-08T08:02:36.161Z,71.60
2022-08-08T08:05:03.628Z,71.70
2022-08-08T08:10:14.097Z,98.50
2022-08-08T08:12:53.294Z,87.00
2022-08-08T08:15:31.937Z,85.20
2022-08-08T08:18:06.318Z,87.00
2022-08-08T08:20:45.673Z,85.60
2022-08-08T08:23:15.863Z,85.70
2022-08-08T08:25:55.317Z,85.30
2022-08-08T08:28:27.719Z,87.60
2022-08-08T08:31:04.986Z,86.20
2022-08-08T08:33:37.389Z,90.00
2022-08-08T08:36:20.499Z,72.60
2022-08-08T08:38:53.507Z,73.30
2022-08-08T08:41:35.089Z,73.60
2022-08-08T08:44:14.077Z,73.50
2022-08-08T08:46:57.827Z,73.50
2022-08-08T08:49:34.124Z,73.60
2022-08-08T08:52:07.128Z,74.00
2022-08-08T08:54:38.582Z,74.00
2022-08-08T08:57:17.159Z,73.90
2022-08-08T08:59:59.780Z,73.70
2022-08-08T09:02:41.198Z,73.60
2022-08-08T09:05:49.034Z,73.80
2022-08-08T09:08:13.013Z,74.00
2022-08-08T09:10:49.256Z,74.00
2022-08-08T09:13:25.170Z,74.00
2022-08-08T09:16:03.441Z,74.10
2022-08-08T09:18:36.773Z,74.10
2022-08-08T09:22:04.771Z,74.40
2022-08-08T09:23:57.909Z,74.50
2022-08-08T09:26:39.505Z,74.20
2022-08-08T09:29:22.141Z,73.90
2022-08-08T09:32:00.690Z,74.10
2022-08-08T09:34:39.499Z,74.00
2022-08-08T09:37:57.319Z,73.80
2022-08-08T09:40:12.728Z,74.30
2022-08-08T09:42:51.590Z,74.10
2022-08-08T09:46:01.719Z,73.80
2022-08-08T09:48:16.219Z,73.50
2022-08-08T09:50:56.123Z,73.40
2022-08-08T09:53:59.088Z,73.40
2022-08-08T09:56:25.434Z,73.70
2022-08-08T09:59:20.045Z,73.90
2022-08-08T10:02:00.171Z,74.00
2022-08-08T10:04:41.705Z,74.50
2022-08-08T10:07:18.615Z,75.40
2022-08-08T10:10:00.701Z,75.10
2022-08-08T10:12:37.666Z,75.00
2022-08-08T10:15:18.107Z,75.10
2022-08-08T10:18:07.458Z,75.00
2022-08-08T10:20:51.128Z,74.30
2022-08-08T10:23:45.067Z,72.40
2022-08-08T10:26:30.013Z,72.00
2022-08-08T10:29:05.281Z,80.40
2022-08-08T10:31:54.944Z,80.50
2022-08-08T10:34:27.553Z,80.60
2022-08-08T10:36:59.670Z,81.20
2022-08-08T10:39:43.339Z,81.60
2022-08-08T10:42:21.641Z,82.20
2022-08-08T10:45:08.186Z,91.70
2022-08-08T10:50:17.552Z,72.30
2022-08-08T10:52:47.009Z,74.70
2022-08-08T10:55:39.697Z,75.00
2022-08-08T10:58:11.665Z,76.60
2022-08-08T11:00:48.496Z,76.80
2022-08-08T11:03:52.459Z,77.20
2022-08-08T11:06:14.080Z,77.10
2022-08-08T11:08:53.582Z,76.90
2022-08-08T11:11:59.799Z,77.10
2022-08-08T11:14:16.244Z,76.60
2022-08-08T11:16:47.308Z,76.80
2022-08-08T11:19:19.420Z,76.80
2022-08-08T11:21:54.313Z,77.00
2022-08-08T11:24:29.306Z,76.30
2022-08-08T11:27:10.646Z,76.10
2022-08-08T11:30:20.229Z,76.00
2022-08-08T11:32:43.134Z,76.00
2022-08-08T11:35:27.091Z,75.50
2022-08-08T11:38:38.720Z,75.50
2022-08-08T11:40:55.503Z,75.00
2022-08-08T11:43:38.847Z,74.70
2022-08-08T11:46:13.997Z,74.40
2022-08-08T11:48:49.125Z,74.10
2022-08-08T11:51:30.813Z,73.80
2022-08-08T11:54:31.250Z,73.50
2022-08-08T11:57:16.707Z,73.50
2022-08-08T11:59:58.252Z,73.20
2022-08-08T12:02:54.982Z,72.90
2022-08-08T12:05:33.925Z,72.90
2022-08-08T12:08:04.339Z,72.70
2022-08-08T12:10:34.116Z,72.70
2022-08-08T12:13:09.494Z,72.60
2022-08-08T12:15:49.039Z,72.40
2022-08-08T12:18:24.597Z,72.40
2022-08-08T12:20:56.670Z,72.40
2022-08-08T12:23:42.736Z,72.20
2022-08-08T12:26:28.164Z,72.20
2022-08-08T12:29:36.249Z,72.00
2022-08-08T12:32:17.090Z,71.80
2022-08-08T12:34:56.412Z,71.80
2022-08-08T12:37:41.444Z,71.80
2022-08-08T12:40:23.679Z,71.60
2022-08-08T12:42:55.833Z,71.60
2022-08-08T12:45:58.173Z,72.40
2022-08-08T12:48:36.530Z,71.60
2022-08-08T12:51:11.448Z,71.60
2022-08-08T12:53:59.203Z,71.60
2022-08-08T12:56:36.767Z,71.50
2022-08-08T12:59:16.705Z,71.40
2022-08-08T13:01:53.646Z,71.50
2022-08-08T13:04:26.581Z,71.40
2022-08-08T13:07:03.339Z,71.40
2022-08-08T13:10:00.541Z,71.30
2022-08-08T13:12:32.881Z,71.10
2022-08-08T13:15:04.021Z,70.70
2022-08-08T13:18:07.680Z,70.90
2022-08-08T13:20:27.458Z,70.80
2022-08-08T13:25:50.443Z,70.80
2022-08-08T13:28:32.872Z,70.50
2022-08-08T13:31:04.054Z,70.60
2022-08-08T13:33:41.634Z,70.60
2022-08-08T13:36:13.887Z,71.20
2022-08-08T13:38:43.338Z,70.40
2022-08-08T13:41:15.986Z,70.40
2022-08-08T13:43:50.671Z,70.30
2022-08-08T13:46:27.424Z,70.20
2022-08-08T13:50:33.392Z,70.10
2022-08-08T13:52:04.994Z,70.10
2022-08-08T13:54:38.551Z,70.20
2022-08-08T13:57:16.250Z,70.10
2022-08-08T13:59:48.122Z,70.30
2022-08-08T14:02:20.776Z,70.40
2022-08-08T14:04:54.879Z,70.80
2022-08-08T14:07:30.599Z,71.10
2022-08-08T14:10:04.239Z,70.60
2022-08-08T14:12:43.775Z,70.50
2022-08-08T14:15:31.345Z,70.70
2022-08-08T14:18:35.126Z,70.20
2022-08-08T14:21:12.573Z,70.10
2022-08-08T14:24:03.946Z,70.10
2022-08-08T14:26:46.404Z,70.20
2022-08-08T14:29:29.048Z,70.20
2022-08-08T14:32:09.312Z,70.20
2022-08-08T14:34:43.418Z,70.20
2022-08-08T14:37:19.164Z,70.10
2022-08-08T14:40:06.513Z,70.00
2022-08-08T14:42:54.580Z,69.90
2022-08-08T14:45:33.325Z,70.00
2022-08-08T14:48:27.615Z,70.80
2022-08-08T14:51:07.699Z,69.90
2022-08-08T14:53:54.519Z,69.90
2022-08-08T14:56:27.699Z,69.90
2022-08-08T14:58:58.896Z,70.00
2022-08-08T15:01:37.660Z,69.90
2022-08-08T15:04:13.191Z,69.80
2022-08-08T15:06:45.372Z,69.70
2022-08-08T15:09:14.781Z,69.70
2022-08-08T15:11:53.413Z,69.70
2022-08-08T15:14:25.041Z,69.60
2022-08-08T15:16:57.199Z,69.70
2022-08-08T15:19:28.119Z,69.70
2022-08-08T15:21:58.412Z,69.60
2022-08-08T15:24:31.823Z,69.70
2022-08-08T15:27:12.106Z,69.70
2022-08-08T15:29:52.257Z,69.50
2022-08-08T15:32:27.372Z,69.40
2022-08-08T15:35:00.478Z,69.60
2022-08-08T15:37:33.715Z,69.60
2022-08-08T15:40:03.315Z,69.40
2022-08-08T15:42:34.225Z,69.50
2022-08-08T15:45:03.958Z,69.50
2022-08-08T15:47:33.327Z,69.40
2022-08-08T15:50:04.133Z,70.00
2022-08-08T15:52:38.031Z,72.20
2022-08-08T15:55:10.194Z,73.10
2022-08-08T15:57:41.396Z,73.40
2022-08-08T16:00:26.877Z,73.20
2022-08-08T16:02:59.405Z,73.70
2022-08-08T16:05:36.039Z,73.30
2022-08-08T16:08:19.995Z,73.00
2022-08-08T16:13:14.407Z,73.30
2022-08-08T16:13:45.522Z,73.30
2022-08-08T16:16:17.679Z,72.90
2022-08-08T16:18:52.920Z,73.10
2022-08-08T16:21:31.490Z,73.20
2022-08-08T16:24:02.756Z,73.20
2022-08-08T16:26:35.790Z,73.30
2022-08-08T16:29:09.599Z,72.70
2022-08-08T16:31:48.592Z,72.70
2022-08-08T16:34:21.914Z,72.60
2022-08-08T16:36:54.444Z,72.40
2022-08-08T16:39:59.413Z,72.80
2022-08-08T16:42:17.930Z,72.40
2022-08-08T16:44:54.997Z,72.20
2022-08-08T16:47:40.628Z,72.30
2022-08-08T16:50:15.397Z,72.10
2022-08-08T16:55:03.016Z,72.10
2022-08-08T16:55:55.260Z,71.60
2022-08-08T16:58:34.287Z,71.60
2022-08-08T17:01:06.382Z,71.30
2022-08-08T17:04:00.499Z,71.40
2022-08-08T17:06:39.695Z,71.60
2022-08-08T17:09:15.986Z,71.20
2022-08-08T17:11:55.508Z,71.50
2022-08-08T17:14:34.022Z,71.10
2022-08-08T17:17:22.879Z,70.90
2022-08-08T17:19:57.621Z,71.20
2022-08-08T17:22:39.122Z,71.00
2022-08-08T17:25:11.925Z,70.90
2022-08-08T17:27:41.867Z,71.60
2022-08-08T17:30:23.640Z,71.40
2022-08-08T17:34:53.144Z,71.90
2022-08-08T17:35:53.367Z,72.10
2022-08-08T17:38:30.866Z,71.50
2022-08-08T17:41:00.476Z,71.70
2022-08-08T17:43:31.808Z,72.30
2022-08-08T17:46:42.875Z,71.60
2022-08-08T17:49:16.510Z,71.50
2022-08-08T17:51:53.540Z,71.40
2022-08-08T17:54:26.004Z,71.80
2022-08-08T17:56:58.903Z,71.70
2022-08-08T17:59:30.581Z,72.10
2022-08-08T18:02:11.375Z,73.00
2022-08-08T18:04:51.008Z,74.70
2022-08-08T18:08:04.064Z,74.10
2022-08-08T18:10:10.213Z,73.40
2022-08-08T18:12:40.036Z,70.50
2022-08-08T18:15:13.027Z,68.30
2022-08-08T18:18:27.274Z,66.80
2022-08-08T18:20:43.960Z,66.20
2022-08-08T18:23:22.870Z,65.20
2022-08-08T18:25:53.384Z,64.90
2022-08-08T18:28:25.644Z,64.30
2022-08-08T18:30:55.426Z,63.90
2022-08-08T18:34:10.682Z,63.30
2022-08-08T18:36:18.951Z,63.30
2022-08-08T18:38:52.939Z,62.90
2022-08-08T18:41:51.170Z,62.60
2022-08-08T18:44:12.798Z,61.90
2022-08-08T18:46:54.555Z,61.60
2022-08-08T18:49:32.635Z,61.40
2022-08-08T18:52:18.217Z,60.80
2022-08-08T18:54:59.162Z,60.60
2022-08-08T18:57:31.988Z,60.00
2022-08-08T19:00:15.927Z,59.90
2022-08-08T19:02:55.191Z,59.80
2022-08-08T19:05:30.584Z,59.70
2022-08-08T19:08:25.268Z,59.70
2022-08-08T19:11:01.813Z,59.90
2022-08-08T19:13:53.756Z,60.10
2022-08-08T19:16:23.471Z,60.60
2022-08-08T19:19:02.119Z,60.10
2022-08-08T19:21:33.558Z,59.80
2022-08-08T19:24:42.423Z,59.50
2022-08-08T19:27:10.783Z,59.30
2022-08-08T19:29:42.457Z,59.40
2022-08-08T19:32:22.050Z,59.20
2022-08-08T19:34:53.074Z,59.10
2022-08-08T19:37:43.050Z,58.70
2022-08-08T19:40:16.278Z,58.60
2022-08-08T19:42:47.384Z,59.00
2022-08-08T19:45:58.273Z,58.60
2022-08-08T19:48:28.168Z,58.90
2022-08-08T19:50:56.439Z,58.60
2022-08-08T19:53:51.327Z,59.00
2022-08-08T19:56:39.214Z,59.80
2022-08-08T19:59:07.509Z,60.20
2022-08-08T20:02:01.421Z,59.60
2022-08-08T20:04:27.227Z,61.00
2022-08-08T20:06:56.883Z,60.80
2022-08-08T20:09:29.990Z,57.60
2022-08-08T20:12:03.516Z,58.50
2022-08-08T20:14:42.176Z,57.50
2022-08-08T20:17:21.765Z,56.70
2022-08-08T20:19:57.633Z,55.20
2022-08-08T20:22:30.831Z,54.90
2022-08-08T20:25:02.219Z,55.20
2022-08-08T20:27:43.791Z,54.00
2022-08-08T20:30:41.875Z,53.00
2022-08-08T20:33:19.768Z,52.90
2022-08-08T20:35:57.160Z,52.70
2022-08-08T20:38:32.800Z,52.30
2022-08-08T20:41:05.984Z,52.20
2022-08-08T20:43:50.219Z,52.50
2022-08-08T20:46:21.174Z,52.10
2022-08-08T20:48:58.344Z,52.40
2022-08-08T20:51:31.533Z,52.20
2022-08-08T20:54:10.494Z,51.90
2022-08-08T20:57:04.558Z,51.30
2022-08-08T20:59:41.009Z,51.20
2022-08-08T21:02:12.865Z,51.10
2022-08-08T21:04:50.108Z,51.90
2022-08-08T21:07:47.839Z,51.70
2022-08-08T21:10:12.630Z,50.90
2022-08-08T21:12:44.595Z,50.90
2022-08-08T21:16:05.545Z,50.90
2022-08-08T21:18:07.951Z,51.00
2022-08-08T21:20:37.772Z,50.80
2022-08-08T21:23:09.431Z,50.90
2022-08-08T21:25:38.995Z,50.90
2022-08-08T21:28:15.060Z,51.00
2022-08-08T21:30:52.055Z,51.20
2022-08-08T21:33:22.147Z,50.90
2022-08-08T21:36:16.839Z,51.00
2022-08-08T21:38:40.762Z,51.00
2022-08-08T21:41:10.073Z,51.00
2022-08-08T21:43:58.332Z,50.90
2022-08-08T21:48:08.717Z,50.80
2022-08-08T21:49:18.351Z,50.70
2022-08-08T21:54:32.948Z,50.70
2022-08-08T21:54:54.897Z,50.60
2022-08-08T21:57:27.458Z,50.70
2022-08-08T22:00:03.950Z,50.50
2022-08-08T22:02:44.680Z,50.30
2022-08-08T22:05:15.440Z,50.40
2022-08-08T22:07:48.070Z,50.20
2022-08-08T22:10:28.587Z,50.20
2022-08-08T22:13:17.896Z,50.80
2022-08-08T22:15:59.546Z,50.30
2022-08-08T22:18:33.995Z,50.40
2022-08-08T22:21:13.829Z,50.70
2022-08-08T22:23:50.809Z,50.70
2022-08-08T22:26:28.684Z,50.60
2022-08-08T22:29:14.174Z,50.50
2022-08-08T22:32:01.692Z,50.40
2022-08-08T22:34:39.478Z,50.50
2022-08-08T22:37:27.525Z,50.40
2022-08-08T22:40:01.088Z,50.30
2022-08-08T22:42:34.607Z,50.40
2022-08-08T22:45:12.323Z,50.50
2022-08-08T22:47:48.995Z,50.50
2022-08-08T22:50:27.164Z,50.80
2022-08-08T22:54:17.070Z,51.00
2022-08-08T22:55:59.827Z,51.00
2022-08-08T22:58:33.134Z,51.10
2022-08-08T23:02:00.764Z,51.20
2022-08-08T23:03:55.550Z,51.30
2022-08-08T23:06:27.607Z,51.30
2022-08-08T23:09:00.222Z,51.40
2022-08-08T23:12:18.877Z,51.60
2022-08-08T23:14:22.065Z,51.70
2022-08-08T23:16:59.686Z,51.80
2022-08-08T23:19:32.374Z,51.90
2022-08-08T23:22:04.562Z,52.00
2022-08-08T23:24:36.596Z,52.10
2022-08-08T23:27:11.246Z,52.30
2022-08-08T23:29:56.018Z,52.40
2022-08-08T23:32:29.713Z,52.50
2022-08-08T23:34:59.599Z,52.40
2022-08-08T23:38:02.307Z,52.40
2022-08-08T23:40:22.154Z,52.30
2022-08-08T23:42:52.148Z,52.40
2022-08-08T23:48:59.779Z,52.60
2022-08-08T23:49:05.463Z,52.70
2022-08-08T23:51:00.872Z,52.80
2022-08-08T23:54:05.003Z,53.00
2022-08-08T23:56:23.800Z,53.30
2022-08-08T23:59:02.475Z,53.40
